Flight Number: EUR2114 Duration: 1:00
Departure: Budapest Ferihegy (LHBP) at 21:30 Distance: 306 Nm
Arrival: Munich Int'l (EDDM) at 22:30 Equipment: DHC8

Weather Information
Budapest / Ferihegy, Hungary (LHBP) 47-26N 019-16E 185M Jan 21, 2019 - 07:30 AM EST / 2019.01.21 1230 UTC
Wind: from the E (100 degrees) at 6 MPH (5 KT):0
Visibility: 4 mile(s):0 Temperature: 32 F (0 C)
Windchill: 26 F (-3 C):1 Dew Point: 28 F (-2 C) Relative Humidity: 86% Pressure (altimeter): 30.15 in. Hg (1021 hPa)
ob: LHBP 211230Z 10005KT 8000 NSC M00/M02 Q1021 R88/29//95 NOSIG cycle: 12
Sunrise: 06:24 Sunset: 15:23 (UTC)

Munchen, Germany (EDDM) 48-21N 011-47E Jan 21, 2019 - 07:50 AM EST / 2019.01.21 1250 UTC
Wind: Variable at 2 MPH (2 KT):0
Visibility: greater than 7 mile(s):0
Sky conditions: mostly clear Temperature: 28 F (-2 C) Dew Point: 23 F (-5 C) Relative Humidity: 79% Pressure (altimeter): 30.06 in. Hg (1018 hPa)
ob: EDDM 211250Z VRB02KT 9999 FEW018 M02/M05 Q1018 NOSIG cycle: 13
Sunrise: 06:57 Sunset: 15:50 (UTC)

TAF:2019/01/21 12:27 TAF EDDM 211100Z 2112/2218 VRB03KT 9000 SCT040 TEMPO 2200/2210 3000 BR PROB30 TEMPO 2202/2208 BKN007 BECMG 2212/2214 11005KT

Previous Pireps for this route
Date Aircraft Flight time Fuel used Landing rate On time
2018-05-18B73701.357402-376Charter
(pireps marked green are flown by you)

Route map